Terminal Aerodrome Forecast
Issued by NWS Goodland, KS

Home | Current Version | Previous Version | Text Only | Print | Product List | Glossary Off
Versions: 1 2 3 4 5 6 7 8 9 10 11 12 13 14 15 16 17 18 19

000
FTUS43 KGLD 260932 AAA
TAFGLD
TAF AMD
KGLD 260932Z 2610/2706 15008KT 5SM BR SCT120
      TEMPO 2610/2611 1SM BR OVC008
     FM261100 11007KT 1/2SM FG OVC003
     FM261500 10008KT 3/4SM BR BKN008
     FM261700 09009KT P6SM BKN035=

USA.gov is the U.S. government's official web portal to all federal, state and local government web resources and services.